createdAt,value
2022-12-18T00:01:25.999Z,98680.52
2022-12-18T00:03:56.043Z,98679.17
2022-12-18T00:06:26.201Z,98681.75
2022-12-18T00:08:54.578Z,98681.27
2022-12-18T00:11:23.681Z,98685.43
2022-12-18T00:13:52.355Z,98684.59
2022-12-18T00:16:21.884Z,98690.76
2022-12-18T00:18:50.639Z,98692.98
2022-12-18T00:21:19.088Z,98698.48
2022-12-18T00:23:47.629Z,98702.23
2022-12-18T00:26:20.270Z,98707.55
2022-12-18T00:28:48.133Z,98716.13
2022-12-18T00:31:23.749Z,98724.23
2022-12-18T00:33:57.093Z,98727.48
2022-12-18T00:36:35.188Z,98735.38
2022-12-18T00:39:04.308Z,98738.00
2022-12-18T00:41:50.862Z,98739.55
2022-12-18T00:44:19.195Z,98740.58
2022-12-18T00:46:48.080Z,98746.57
2022-12-18T00:49:20.271Z,98749.65
2022-12-18T00:51:49.041Z,98752.03
2022-12-18T00:54:17.420Z,98753.06
2022-12-18T00:56:49.006Z,98755.30
2022-12-18T00:59:19.076Z,98761.46
2022-12-18T01:01:47.208Z,98763.84
2022-12-18T01:04:15.751Z,98767.94
2022-12-18T01:06:46.996Z,98766.05
2022-12-18T01:09:14.859Z,98768.27
2022-12-18T01:11:42.830Z,98766.52
2022-12-18T01:14:11.925Z,98769.27
2022-12-18T01:16:39.844Z,98772.86
2022-12-18T01:19:08.066Z,98776.77
2022-12-18T01:21:36.034Z,98777.27
2022-12-18T01:24:06.215Z,98781.55
2022-12-18T01:26:35.257Z,98786.86
2022-12-18T01:29:03.226Z,98791.30
2022-12-18T01:31:32.998Z,98791.66
2022-12-18T01:34:05.008Z,98792.52
2022-12-18T01:36:34.023Z,98795.08
2022-12-18T01:39:04.108Z,98801.10
2022-12-18T01:41:52.870Z,98805.55
2022-12-18T01:44:39.683Z,98811.56
2022-12-18T01:47:19.628Z,98812.96
2022-12-18T01:49:47.477Z,98816.23
2022-12-18T01:52:15.977Z,98820.02
2022-12-18T01:54:44.259Z,98824.16
2022-12-18T01:57:12.528Z,98826.21
2022-12-18T01:59:41.324Z,98823.60
2022-12-18T02:02:10.377Z,98822.90
2022-12-18T02:04:38.486Z,98823.91
2022-12-18T02:07:06.351Z,98825.30
2022-12-18T02:10:00.637Z,98824.81
2022-12-18T02:12:41.313Z,98827.73
2022-12-18T02:15:32.792Z,98829.47
2022-12-18T02:18:06.639Z,98833.27
2022-12-18T02:20:37.474Z,98833.43
2022-12-18T02:23:05.439Z,98839.43
2022-12-18T02:25:52.359Z,98840.80
2022-12-18T02:28:21.997Z,98847.33
2022-12-18T02:30:51.331Z,98850.08
2022-12-18T02:33:22.922Z,98849.74
2022-12-18T02:35:52.837Z,98851.64
2022-12-18T02:38:21.961Z,98849.95
2022-12-18T02:40:51.433Z,98856.81
2022-12-18T02:43:19.608Z,98861.80
2022-12-18T02:45:49.376Z,98861.30
2022-12-18T02:48:20.365Z,98861.84
2022-12-18T02:51:04.719Z,98868.21
2022-12-18T02:53:38.272Z,98874.56
2022-12-18T02:56:11.717Z,98881.94
2022-12-18T02:58:46.028Z,98885.55
2022-12-18T03:01:29.398Z,98883.36
2022-12-18T03:04:01.943Z,98886.96
2022-12-18T03:06:33.182Z,98887.66
2022-12-18T03:09:04.019Z,98889.88
2022-12-18T03:11:53.222Z,98892.29
2022-12-18T03:14:22.493Z,98893.84
2022-12-18T03:16:52.349Z,98902.75
2022-12-18T03:19:22.936Z,98906.86
2022-12-18T03:21:55.202Z,98910.11
2022-12-18T03:24:25.730Z,98913.89
2022-12-18T03:26:55.821Z,98917.48
2022-12-18T03:29:27.914Z,98918.69
2022-12-18T03:31:59.164Z,98922.61
2022-12-18T03:34:30.929Z,98923.48
2022-12-18T03:37:00.722Z,98924.33
2022-12-18T03:39:30.502Z,98925.87
2022-12-18T03:42:01.896Z,98935.47
2022-12-18T03:44:34.268Z,98939.07
2022-12-18T03:47:05.213Z,98939.92
2022-12-18T03:49:39.798Z,98947.11
2022-12-18T03:52:12.307Z,98952.77
2022-12-18T03:54:43.047Z,98958.59
2022-12-18T03:57:19.308Z,98961.99
2022-12-18T03:59:50.555Z,98966.63
2022-12-18T04:02:20.084Z,98970.40
2022-12-18T04:04:49.503Z,98970.08
2022-12-18T04:07:19.067Z,98973.16
2022-12-18T04:09:47.140Z,98973.16
2022-12-18T04:12:15.319Z,98974.19
2022-12-18T04:14:43.560Z,98974.70
2022-12-18T04:17:12.276Z,98981.38
2022-12-18T04:19:41.169Z,98983.10
2022-12-18T04:22:10.884Z,98989.77
2022-12-18T04:24:43.156Z,98994.93
2022-12-18T04:27:17.161Z,98996.99
2022-12-18T04:29:49.335Z,98998.20
2022-12-18T04:32:19.555Z,99005.05
2022-12-18T04:34:48.547Z,99014.65
2022-12-18T04:37:16.716Z,99026.98
2022-12-18T04:39:45.608Z,99028.19
2022-12-18T04:42:20.339Z,99028.52
2022-12-18T04:44:48.198Z,99032.80
2022-12-18T04:47:16.071Z,99036.91
2022-12-18T04:49:44.040Z,99042.73
2022-12-18T04:52:11.908Z,99045.83
2022-12-18T04:54:39.779Z,99051.81
2022-12-18T04:57:07.747Z,99052.34
2022-12-18T04:59:35.716Z,99056.10
2022-12-18T05:02:03.758Z,99059.02
2022-12-18T05:04:31.729Z,99060.21
2022-12-18T05:06:59.620Z,99067.92
2022-12-18T05:09:27.591Z,99070.67
2022-12-18T05:11:55.558Z,99076.66
2022-12-18T05:14:24.143Z,99079.58
2022-12-18T05:16:53.283Z,99080.78
2022-12-18T05:19:23.779Z,99082.14
2022-12-18T05:21:51.596Z,99087.61
2022-12-18T05:24:19.605Z,99094.80
2022-12-18T05:26:47.455Z,99098.73
2022-12-18T05:29:15.761Z,99107.48
2022-12-18T05:31:43.651Z,99111.59
2022-12-18T05:34:12.198Z,99113.30
2022-12-18T05:36:40.847Z,99113.27
2022-12-18T05:39:10.496Z,99120.46
2022-12-18T05:41:38.467Z,99119.59
2022-12-18T05:44:06.437Z,99116.66
2022-12-18T05:46:34.373Z,99122.82
2022-12-18T05:49:02.371Z,99128.65
2022-12-18T05:51:30.236Z,99135.33
2022-12-18T05:53:58.107Z,99137.54
2022-12-18T05:56:26.082Z,99141.98
2022-12-18T05:58:54.732Z,99144.89
2022-12-18T06:01:25.156Z,99146.60
2022-12-18T06:03:53.550Z,99148.66
2022-12-18T06:06:23.692Z,99151.91
2022-12-18T06:08:52.071Z,99156.02
2022-12-18T06:11:22.187Z,99160.30
2022-12-18T06:13:58.190Z,99167.31
2022-12-18T06:16:27.930Z,99170.06
2022-12-18T06:19:03.405Z,99174.68
2022-12-18T06:21:31.784Z,99179.63
2022-12-18T06:24:01.051Z,99180.64
2022-12-18T06:26:29.258Z,99182.36
2022-12-18T06:28:57.136Z,99184.23
2022-12-18T06:31:26.236Z,99190.23
2022-12-18T06:33:54.293Z,99197.09
2022-12-18T06:36:22.444Z,99198.98
2022-12-18T06:38:50.673Z,99200.84
2022-12-18T06:41:20.229Z,99204.77
2022-12-18T06:43:48.213Z,99203.77
2022-12-18T06:46:16.237Z,99206.67
2022-12-18T06:48:47.332Z,99210.95
2022-12-18T06:51:17.242Z,99215.57
2022-12-18T06:53:45.217Z,99222.42
2022-12-18T06:56:13.082Z,99228.92
2022-12-18T06:58:41.122Z,99227.23
2022-12-18T07:01:11.257Z,99232.19
2022-12-18T07:03:40.994Z,99230.82
2022-12-18T07:06:19.636Z,99239.38
2022-12-18T07:08:47.799Z,99246.21
2022-12-18T07:11:16.461Z,99251.52
2022-12-18T07:13:45.050Z,99252.71
2022-12-18T07:16:19.642Z,99256.66
2022-12-18T07:18:52.252Z,99257.03
2022-12-18T07:21:20.679Z,99261.14
2022-12-18T07:23:49.412Z,99266.27
2022-12-18T07:26:19.137Z,99271.58
2022-12-18T07:28:47.708Z,99273.13
2022-12-18T07:31:17.576Z,99276.39
2022-12-18T07:33:46.526Z,99280.30
2022-12-18T07:36:15.101Z,99281.36
2022-12-18T07:38:42.919Z,99279.30
2022-12-18T07:41:12.267Z,99285.65
2022-12-18T07:43:41.196Z,99290.44
2022-12-18T07:46:10.518Z,99297.29
2022-12-18T07:48:40.786Z,99295.58
2022-12-18T07:51:08.860Z,99298.33
2022-12-18T07:53:37.491Z,99301.59
2022-12-18T07:56:31.182Z,99307.06
2022-12-18T07:59:00.486Z,99314.61
2022-12-18T08:01:28.905Z,99319.09
2022-12-18T08:03:58.301Z,99318.39
2022-12-18T08:06:26.878Z,99319.94
2022-12-18T08:08:55.775Z,99328.16
2022-12-18T08:11:25.175Z,99330.88
2022-12-18T08:13:53.455Z,99332.73
2022-12-18T08:16:21.749Z,99336.48
2022-12-18T08:18:50.526Z,99341.48
2022-12-18T08:21:24.144Z,99348.85
2022-12-18T08:23:53.011Z,99345.94
2022-12-18T08:26:21.331Z,99351.95
2022-12-18T08:28:50.811Z,99357.60
2022-12-18T08:31:19.681Z,99356.39
2022-12-18T08:33:49.396Z,99361.45
2022-12-18T08:36:17.185Z,99358.70
2022-12-18T08:38:45.128Z,99360.77
2022-12-18T08:41:14.227Z,99360.94
2022-12-18T08:44:00.833Z,99362.14
2022-12-18T08:46:33.537Z,99360.42
2022-12-18T08:49:01.580Z,99365.25
2022-12-18T08:51:30.670Z,99363.73
2022-12-18T08:53:58.799Z,99365.83
2022-12-18T08:56:26.734Z,99364.12
2022-12-18T08:58:54.996Z,99364.63
2022-12-18T09:01:23.492Z,99365.49
2022-12-18T09:03:52.169Z,99361.77
2022-12-18T09:06:20.643Z,99361.97
2022-12-18T09:08:48.532Z,99359.63
2022-12-18T09:11:20.574Z,99361.69
2022-12-18T09:13:48.549Z,99363.95
2022-12-18T09:16:16.741Z,99365.55
2022-12-18T09:18:44.789Z,99364.90
2022-12-18T09:21:17.367Z,99367.34
2022-12-18T09:23:45.346Z,99371.15
2022-12-18T09:26:13.308Z,99369.97
2022-12-18T09:28:41.510Z,99368.08
2022-12-18T09:31:10.406Z,99367.88
2022-12-18T09:33:38.854Z,99366.69
2022-12-18T09:36:08.127Z,99370.02
2022-12-18T09:38:36.344Z,99372.67
2022-12-18T09:41:07.552Z,99371.16
2022-12-18T09:43:42.512Z,99367.05
2022-12-18T09:46:15.904Z,99364.80
2022-12-18T09:48:46.653Z,99367.90
2022-12-18T09:51:16.847Z,99369.10
2022-12-18T09:53:47.403Z,99368.41
2022-12-18T09:56:18.617Z,99366.86
2022-12-18T09:58:50.347Z,99365.84
2022-12-18T10:01:25.151Z,99366.33
2022-12-18T10:03:54.042Z,99365.30
2022-12-18T10:06:21.988Z,99367.02
2022-12-18T10:09:08.596Z,99365.28
2022-12-18T10:11:42.397Z,99370.27
2022-12-18T10:14:29.112Z,99368.52
2022-12-18T10:17:03.234Z,99368.52
2022-12-18T10:19:31.299Z,99370.41
2022-12-18T10:22:11.861Z,99375.55
2022-12-18T10:24:58.673Z,99374.04
2022-12-18T10:27:28.068Z,99372.67
2022-12-18T10:29:55.941Z,99371.45
2022-12-18T10:32:28.104Z,99366.16
2022-12-18T10:35:00.492Z,99370.90
2022-12-18T10:37:29.989Z,99375.98
2022-12-18T10:40:06.867Z,99371.65
2022-12-18T10:42:34.727Z,99370.63
2022-12-18T10:45:06.689Z,99377.06
2022-12-18T10:47:35.077Z,99379.09
2022-12-18T10:50:04.274Z,99374.81
2022-12-18T10:52:32.550Z,99374.38
2022-12-18T10:55:03.862Z,99370.32
2022-12-18T10:57:33.707Z,99375.69
2022-12-18T11:00:14.577Z,99380.05
2022-12-18T11:02:42.581Z,99380.06
2022-12-18T11:05:31.102Z,99376.98
2022-12-18T11:07:59.996Z,99382.33
2022-12-18T11:10:36.569Z,99385.08
2022-12-18T11:13:21.233Z,99387.64
2022-12-18T11:15:49.671Z,99389.54
2022-12-18T11:18:26.478Z,99392.79
2022-12-18T11:20:58.676Z,99391.77
2022-12-18T11:23:27.854Z,99392.45
2022-12-18T11:25:57.766Z,99395.54
2022-12-18T11:28:25.627Z,99398.43
2022-12-18T11:31:11.145Z,99399.98
2022-12-18T11:33:53.183Z,99405.80
2022-12-18T11:36:32.270Z,99410.25
2022-12-18T11:39:03.591Z,99412.98
2022-12-18T11:41:57.779Z,99415.02
2022-12-18T11:44:29.363Z,99410.21
2022-12-18T11:47:01.600Z,99412.59
2022-12-18T11:49:36.643Z,99416.52
2022-12-18T11:52:10.440Z,99414.98
2022-12-18T11:54:38.515Z,99413.10
2022-12-18T11:57:09.249Z,99411.04
2022-12-18T11:59:59.956Z,99413.60
2022-12-18T12:02:34.316Z,99422.86
2022-12-18T12:05:20.055Z,99424.23
2022-12-18T12:07:50.991Z,99425.41
2022-12-18T12:10:37.903Z,99427.98
2022-12-18T12:13:12.595Z,99430.20
2022-12-18T12:15:46.639Z,99435.52
2022-12-18T12:18:17.581Z,99432.45
2022-12-18T12:21:04.608Z,99433.13
2022-12-18T12:23:51.208Z,99436.71
2022-12-18T12:26:39.452Z,99441.66
2022-12-18T12:29:25.656Z,99446.27
2022-12-18T12:31:53.476Z,99447.81
2022-12-18T12:34:27.727Z,99450.19
2022-12-18T12:37:01.643Z,99457.20
2022-12-18T12:39:33.125Z,99454.95
2022-12-18T12:42:20.830Z,99461.10
2022-12-18T12:44:56.360Z,99466.38
2022-12-18T12:47:31.754Z,99468.23
2022-12-18T12:50:01.527Z,99467.73
2022-12-18T12:52:31.028Z,99472.33
2022-12-18T12:54:59.718Z,99475.08
2022-12-18T12:57:40.996Z,99478.85
2022-12-18T13:00:09.168Z,99486.55
2022-12-18T13:02:52.196Z,99485.50
2022-12-18T13:05:25.384Z,99487.55
2022-12-18T13:07:58.505Z,99490.77
2022-12-18T13:10:32.517Z,99493.32
2022-12-18T13:13:02.603Z,99490.57
2022-12-18T13:15:46.977Z,99492.27
2022-12-18T13:18:19.511Z,99495.20
2022-12-18T13:21:02.968Z,99496.05
2022-12-18T13:23:34.049Z,99495.89
2022-12-18T13:26:09.133Z,99498.46
2022-12-18T13:28:49.108Z,99497.92
2022-12-18T13:31:36.012Z,99500.15
2022-12-18T13:34:26.232Z,99502.86
2022-12-18T13:36:57.347Z,99504.02
2022-12-18T13:39:35.936Z,99505.73
2022-12-18T13:42:07.315Z,99503.86
2022-12-18T13:44:42.351Z,99506.58
2022-12-18T13:47:30.754Z,99510.00
2022-12-18T13:49:59.504Z,99513.77
2022-12-18T13:52:34.779Z,99514.98
2022-12-18T13:55:03.826Z,99514.62
2022-12-18T13:57:33.951Z,99524.38
2022-12-18T14:00:20.755Z,99520.94
2022-12-18T14:02:48.799Z,99521.46
2022-12-18T14:05:27.548Z,99523.84
2022-12-18T14:07:55.759Z,99525.38
2022-12-18T14:10:47.588Z,99531.16
2022-12-18T14:13:17.564Z,99539.19
2022-12-18T14:15:48.536Z,99543.13
2022-12-18T14:18:27.839Z,99545.33
2022-12-18T14:20:57.862Z,99546.17
2022-12-18T14:23:31.663Z,99545.32
2022-12-18T14:26:05.124Z,99545.33
2022-12-18T14:28:33.955Z,99547.36
2022-12-18T14:31:01.986Z,99551.46
2022-12-18T14:33:30.098Z,99557.11
2022-12-18T14:35:58.065Z,99554.90
2022-12-18T14:38:39.350Z,99556.26
2022-12-18T14:41:14.309Z,99555.55
2022-12-18T14:43:44.166Z,99556.75
2022-12-18T14:46:30.637Z,99554.52
2022-12-18T14:48:58.881Z,99553.98
2022-12-18T14:51:30.808Z,99554.13
2022-12-18T14:54:01.374Z,99557.89
2022-12-18T14:56:33.444Z,99560.80
2022-12-18T14:59:01.405Z,99561.31
2022-12-18T15:01:31.734Z,99563.37
2022-12-18T15:04:00.823Z,99568.67
2022-12-18T15:06:31.353Z,99571.95
2022-12-18T15:09:00.655Z,99577.09
2022-12-18T15:11:35.897Z,99581.20
2022-12-18T15:14:23.520Z,99588.58
2022-12-18T15:16:52.817Z,99591.98
2022-12-18T15:19:22.334Z,99591.66
2022-12-18T15:21:50.604Z,99594.58
2022-12-18T15:24:19.734Z,99597.64
2022-12-18T15:26:49.000Z,99600.73
2022-12-18T15:29:21.850Z,99605.38
2022-12-18T15:32:06.344Z,99606.05
2022-12-18T15:34:35.237Z,99609.83
2022-12-18T15:37:03.212Z,99613.60
2022-12-18T15:39:31.174Z,99619.25
2022-12-18T15:42:17.679Z,99620.59
2022-12-18T15:44:46.065Z,99622.30
2022-12-18T15:47:14.370Z,99627.08
2022-12-18T15:49:42.322Z,99627.74
2022-12-18T15:52:12.317Z,99632.20
2022-12-18T15:54:58.826Z,99635.77
2022-12-18T15:57:27.694Z,99643.13
2022-12-18T15:59:59.193Z,99646.20
2022-12-18T16:02:27.609Z,99644.84
2022-12-18T16:04:55.719Z,99647.23
2022-12-18T16:07:25.223Z,99652.04
2022-12-18T16:09:54.324Z,99660.27
2022-12-18T16:12:26.055Z,99662.85
2022-12-18T16:14:53.997Z,99669.19
2022-12-18T16:17:21.918Z,99670.23
2022-12-18T16:19:49.883Z,99671.96
2022-12-18T16:22:22.567Z,99678.80
2022-12-18T16:24:51.861Z,99679.50
2022-12-18T16:27:20.243Z,99680.87
2022-12-18T16:29:48.325Z,99684.11
2022-12-18T16:32:17.612Z,99689.41
2022-12-18T16:34:46.403Z,99688.02
2022-12-18T16:37:15.402Z,99687.00
2022-12-18T16:39:43.570Z,99685.46
2022-12-18T16:42:15.635Z,99687.53
2022-12-18T16:44:44.293Z,99687.36
2022-12-18T16:47:14.976Z,99686.33
2022-12-18T16:49:46.025Z,99681.02
2022-12-18T16:52:14.381Z,99680.86
2022-12-18T16:54:42.362Z,99682.90
2022-12-18T16:57:13.203Z,99680.15
2022-12-18T16:59:41.149Z,99679.98
2022-12-18T17:02:14.398Z,99681.35
2022-12-18T17:04:42.829Z,99680.65
2022-12-18T17:07:10.660Z,99678.95
2022-12-18T17:09:38.735Z,99677.73
2022-12-18T17:12:06.833Z,99684.75
2022-12-18T17:14:35.009Z,99684.07
2022-12-18T17:19:52.076Z,99692.77
2022-12-18T17:22:21.404Z,99685.77
2022-12-18T17:24:49.318Z,99696.07
2022-12-18T17:27:17.384Z,99699.98
2022-12-18T17:29:48.322Z,99702.88
2022-12-18T17:32:17.263Z,99705.25
2022-12-18T17:34:45.605Z,99706.09
2022-12-18T17:37:13.974Z,99709.81
2022-12-18T17:39:42.561Z,99710.50
2022-12-18T17:42:10.891Z,99711.00
2022-12-18T17:44:43.953Z,99708.77
2022-12-18T17:47:13.386Z,99712.02
2022-12-18T17:49:41.509Z,99715.77
2022-12-18T17:52:10.397Z,99719.02
2022-12-18T17:54:40.059Z,99719.88
2022-12-18T17:57:08.324Z,99722.98
2022-12-18T17:59:36.552Z,99721.29
2022-12-18T18:02:04.657Z,99723.52
2022-12-18T18:04:32.806Z,99723.51
2022-12-18T18:07:00.662Z,99727.24
2022-12-18T18:09:28.739Z,99729.09
2022-12-18T18:12:15.958Z,99722.92
2022-12-18T18:14:44.251Z,99720.88
2022-12-18T18:17:12.203Z,99722.40
2022-12-18T18:19:40.180Z,99725.83
2022-12-18T18:22:08.558Z,99727.00
2022-12-18T18:24:36.628Z,99728.89
2022-12-18T18:27:04.498Z,99726.11
2022-12-18T18:29:32.596Z,99724.35
2022-12-18T18:32:01.040Z,99729.43
2022-12-18T18:34:30.761Z,99727.15
2022-12-18T18:36:59.343Z,99725.67
2022-12-18T18:39:27.721Z,99729.08
2022-12-18T18:41:55.896Z,99727.84
2022-12-18T18:44:25.687Z,99736.09
2022-12-18T18:46:55.317Z,99741.83
2022-12-18T18:49:24.515Z,99749.42
2022-12-18T18:51:52.903Z,99754.58
2022-12-18T18:54:23.630Z,99759.13
2022-12-18T18:59:39.940Z,99764.48
2022-12-18T19:02:11.752Z,99769.69
2022-12-18T19:04:44.749Z,99769.41
2022-12-18T19:07:28.138Z,99772.13
2022-12-18T19:09:59.604Z,99780.19
2022-12-18T19:12:52.121Z,99783.94
2022-12-18T19:15:20.184Z,99789.09
2022-12-18T19:17:48.387Z,99786.84
2022-12-18T19:20:16.655Z,99783.65
2022-12-18T19:22:46.055Z,99784.09
2022-12-18T19:25:26.957Z,99785.02
2022-12-18T19:28:06.458Z,99788.93
2022-12-18T19:30:39.136Z,99786.69
2022-12-18T19:33:26.775Z,99788.63
2022-12-18T19:35:55.243Z,99794.89
2022-12-18T19:38:23.502Z,99794.98
2022-12-18T19:40:51.854Z,99794.39
2022-12-18T19:43:19.773Z,99799.64
2022-12-18T19:45:54.351Z,99804.89
2022-12-18T19:48:22.263Z,99807.67
2022-12-18T19:50:50.134Z,99818.70
2022-12-18T19:53:18.102Z,99822.11
2022-12-18T19:55:45.980Z,99820.20
2022-12-18T19:58:16.295Z,99819.70
2022-12-18T20:00:44.321Z,99814.23
2022-12-18T20:03:22.405Z,99815.88
2022-12-18T20:05:53.412Z,99811.50
2022-12-18T20:08:21.478Z,99811.40
2022-12-18T20:10:49.451Z,99809.05
2022-12-18T20:13:17.628Z,99806.48
2022-12-18T20:15:45.702Z,99806.98
2022-12-18T20:18:13.720Z,99811.90
2022-12-18T20:20:41.739Z,99820.42
2022-12-18T20:23:10.012Z,99827.55
2022-12-18T20:25:38.311Z,99830.08
2022-12-18T20:28:06.359Z,99830.56
2022-12-18T20:30:34.370Z,99831.54
2022-12-18T20:33:02.413Z,99836.46
2022-12-18T20:35:32.316Z,99837.08
2022-12-18T20:38:00.504Z,99832.25
2022-12-18T20:40:29.075Z,99834.27
2022-12-18T20:42:57.147Z,99831.96
2022-12-18T20:45:25.120Z,99834.43
2022-12-18T20:47:56.158Z,99829.24
2022-12-18T20:50:24.132Z,99826.91
2022-12-18T20:52:52.005Z,99827.70
2022-12-18T20:55:19.967Z,99834.10
2022-12-18T20:57:49.673Z,99834.88
2022-12-18T21:00:19.451Z,99835.67
2022-12-18T21:02:49.504Z,99842.60
2022-12-18T21:05:17.906Z,99847.48
2022-12-18T21:07:45.960Z,99851.85
2022-12-18T21:10:14.037Z,99853.34
2022-12-18T21:13:00.158Z,99852.27
2022-12-18T21:15:32.597Z,99858.56
2022-12-18T21:18:00.571Z,99857.97
2022-12-18T21:20:28.540Z,99857.64
2022-12-18T21:22:56.504Z,99857.75
2022-12-18T21:25:30.004Z,99860.44
2022-12-18T21:27:58.082Z,99855.40
2022-12-18T21:30:26.047Z,99854.63
2022-12-18T21:32:54.226Z,99857.59
2022-12-18T21:35:22.499Z,99855.49
2022-12-18T21:37:52.514Z,99855.25
2022-12-18T21:40:20.895Z,99852.92
2022-12-18T21:43:07.811Z,99850.30
2022-12-18T21:45:35.595Z,99851.92
2022-12-18T21:48:03.454Z,99852.34
2022-12-18T21:50:34.585Z,99850.91
2022-12-18T21:53:02.388Z,99856.50
2022-12-18T21:55:30.641Z,99860.69
2022-12-18T21:57:58.907Z,99866.05
2022-12-18T22:00:26.844Z,99867.83
2022-12-18T22:03:16.917Z,99872.48
2022-12-18T22:05:42.773Z,99876.98
2022-12-18T22:08:11.053Z,99876.77
2022-12-18T22:10:39.540Z,99874.66
2022-12-18T22:13:07.712Z,99876.08
2022-12-18T22:15:35.712Z,99878.66
2022-12-18T22:18:03.893Z,99877.67
2022-12-18T22:20:32.962Z,99876.70
2022-12-18T22:23:06.071Z,99876.25
2022-12-18T22:25:35.183Z,99872.88
2022-12-18T22:28:23.083Z,99871.08
2022-12-18T22:30:50.948Z,99873.09
2022-12-18T22:33:25.616Z,99874.89
2022-12-18T22:35:53.739Z,99877.34
2022-12-18T22:38:21.606Z,99884.58
2022-12-18T22:40:49.574Z,99887.06
2022-12-18T22:43:17.757Z,99882.36
2022-12-18T22:45:47.577Z,99886.73
2022-12-18T22:48:15.733Z,99888.00
2022-12-18T22:50:44.528Z,99887.71
2022-12-18T22:53:12.599Z,99886.20
2022-12-18T22:55:40.670Z,99883.39
2022-12-18T22:58:08.460Z,99882.98
2022-12-18T23:00:36.198Z,99884.80
2022-12-18T23:03:04.961Z,99882.58
2022-12-18T23:05:35.208Z,99881.89
2022-12-18T23:08:03.177Z,99886.83
2022-12-18T23:10:31.459Z,99887.64
2022-12-18T23:12:59.322Z,99881.48
2022-12-18T23:15:28.107Z,99877.41
2022-12-18T23:17:58.033Z,99877.20
2022-12-18T23:20:27.447Z,99877.13
2022-12-18T23:22:55.407Z,99883.71
2022-12-18T23:25:23.370Z,99886.61
2022-12-18T23:27:51.231Z,99887.00
2022-12-18T23:30:19.410Z,99885.70
2022-12-18T23:32:47.381Z,99885.56
2022-12-18T23:35:16.125Z,99883.38
2022-12-18T23:38:00.541Z,99884.80
2022-12-18T23:40:30.095Z,99883.80
2022-12-18T23:42:59.127Z,99882.16
2022-12-18T23:45:27.093Z,99887.01
2022-12-18T23:47:55.071Z,99892.34
2022-12-18T23:50:29.152Z,99891.55
2022-12-18T23:53:05.186Z,99893.86
2022-12-18T23:55:37.711Z,99887.55
2022-12-18T23:58:05.512Z,99891.77
